Airfield :
LOGIN :

Register | Disclaimer

   EN    FR    IT 

 










Legend :    VFR   Marginal VFR   IFR   Intensive IFR   Very Intensive IFR
Visi :
Ceiling :
>= 8 km
>= 3000ft
5 to 8 km
1000 to 3000 ft
1500m to 5 km
500 to 1000 ft
800 to 1500m
200 to 500 ft
< 800m
< 200 ft
Symbols :   Thunderstorms  Fog  Heavy snow  Heavy precipitations  Wind > 20 kt
SIGMETs :     Misc.  Thunderstorms  Icing  Turbulence  Mountain Waves  Volcanic Ashes







- Airport Elevation : 427 ft
- IATA code : CIA


LIRA - Roma Ciampino

CURRENT METAR :
  • 270620Z 04006KT 9999 FEW015 BKN020 16/13 Q1005

EXPIRED METARs :
  • 270550Z 04006KT 7000 VCSH FEW012 BKN020 16/13 Q1005
  • 270520Z 01006KT 330V040 9999 SCT020 SCT030 15/13 Q1004
  • 270450Z 05006KT 020V080 9999 SCT030 16/13 Q1005
  • 270420Z 09006KT 8000 SCT025 BKN050 16/13 Q1005 RERA
  • 270350Z 10008KT 6000 RA FEW025 BKN040 16/13 Q1005

TAF TAF LIRA
Valid from the 27 at 06:00 until the 28 at 06:00 UTC


270500Z 2706/2806 04006KT 7000 SCT020 BKN050
TEMPO 2706/2718 4000 TSRA
BECMG 2708/2710 16010KT
BECMG 2716/2718 VRB04KT
No reported NOTAMs for that airfield.
1 SIGMET reported for the Roma FIR (LIRR) :
 
Severe turbulence
LIRR SIGMET 3 VALID 270430/270830 LIIB
LIRR ROMA FIR SEV TURB FCST WI N4016 E00852 - N4124 E01154 - N3947 E01332 - N3633 E01338 - N3627 E01128 - N3730 E01125 - N3834 E00852 - N4016 E00852 FL240/360 STNR NC=



MET'MAP, your aeronautical weather chart ! - Copyright ORBIFLY December 2007 - Disclaimer

ORBIFLY MET'MAP TEAM :

Programming & Development : Alexandra Zaïnal
Concept & Development : Baudouin d'Aumeries
Co-Development & Prog : Marc-Olivier Méhu
Technical & hardware support : Manuel Goepfert

Contact : metmap@orbifly.com




SOURCES & CREDITS :

   NOAA